sensor_id;sensor_type;location;lat;lon;timestamp;P1;durP1;ratioP1;P2;durP2;ratioP2
32032;SDS011;31720;52.638;9.216;2023-04-03T00:00:34;1.58;;;0.60;;
32032;SDS011;31720;52.638;9.216;2023-04-03T00:03:36;2.28;;;0.90;;
32032;SDS011;31720;52.638;9.216;2023-04-03T00:06:39;4.47;;;0.50;;
32032;SDS011;31720;52.638;9.216;2023-04-03T00:09:40;4.50;;;0.70;;
32032;SDS011;31720;52.638;9.216;2023-04-03T00:12:42;1.27;;;0.63;;
32032;SDS011;31720;52.638;9.216;2023-04-03T00:15:43;2.55;;;0.73;;
32032;SDS011;31720;52.638;9.216;2023-04-03T00:18:45;0.73;;;0.40;;
32032;SDS011;31720;52.638;9.216;2023-04-03T00:21:48;2.70;;;0.60;;
32032;SDS011;31720;52.638;9.216;2023-04-03T00:24:50;4.05;;;0.65;;
32032;SDS011;31720;52.638;9.216;2023-04-03T00:27:51;0.50;;;0.43;;
32032;SDS011;31720;52.638;9.216;2023-04-03T00:30:53;1.65;;;0.70;;
32032;SDS011;31720;52.638;9.216;2023-04-03T00:33:54;0.82;;;0.50;;
32032;SDS011;31720;52.638;9.216;2023-04-03T00:36:58;2.17;;;0.70;;
32032;SDS011;31720;52.638;9.216;2023-04-03T00:39:59;5.47;;;0.70;;
32032;SDS011;31720;52.638;9.216;2023-04-03T00:43:01;0.95;;;0.52;;
32032;SDS011;31720;52.638;9.216;2023-04-03T00:46:03;11.27;;;1.75;;
32032;SDS011;31720;52.638;9.216;2023-04-03T00:49:04;1.55;;;0.73;;
32032;SDS011;31720;52.638;9.216;2023-04-03T00:52:08;1.00;;;0.57;;
32032;SDS011;31720;52.638;9.216;2023-04-03T00:55:13;0.77;;;0.38;;
32032;SDS011;31720;52.638;9.216;2023-04-03T00:58:15;1.15;;;0.50;;
32032;SDS011;31720;52.638;9.216;2023-04-03T01:01:20;3.13;;;0.70;;
32032;SDS011;31720;52.638;9.216;2023-04-03T01:04:26;1.30;;;0.60;;
32032;SDS011;31720;52.638;9.216;2023-04-03T01:07:30;1.60;;;0.80;;
32032;SDS011;31720;52.638;9.216;2023-04-03T01:10:33;1.58;;;0.65;;
32032;SDS011;31720;52.638;9.216;2023-04-03T01:13:35;1.05;;;0.50;;
32032;SDS011;31720;52.638;9.216;2023-04-03T01:16:36;0.55;;;0.38;;
32032;SDS011;31720;52.638;9.216;2023-04-03T01:19:38;1.27;;;1.02;;
32032;SDS011;31720;52.638;9.216;2023-04-03T01:22:51;8.95;;;0.90;;
32032;SDS011;31720;52.638;9.216;2023-04-03T01:25:57;3.23;;;1.13;;
32032;SDS011;31720;52.638;9.216;2023-04-03T01:28:59;4.47;;;1.42;;
32032;SDS011;31720;52.638;9.216;2023-04-03T01:32:02;0.85;;;0.50;;
32032;SDS011;31720;52.638;9.216;2023-04-03T01:35:04;1.50;;;0.88;;
32032;SDS011;31720;52.638;9.216;2023-04-03T01:38:09;7.00;;;0.77;;
32032;SDS011;31720;52.638;9.216;2023-04-03T01:41:10;3.55;;;0.88;;
32032;SDS011;31720;52.638;9.216;2023-04-03T01:44:11;4.40;;;1.10;;
32032;SDS011;31720;52.638;9.216;2023-04-03T01:47:15;1.60;;;1.00;;
32032;SDS011;31720;52.638;9.216;2023-04-03T01:50:16;2.38;;;0.85;;
32032;SDS011;31720;52.638;9.216;2023-04-03T01:53:17;1.23;;;0.50;;
32032;SDS011;31720;52.638;9.216;2023-04-03T01:56:19;1.58;;;0.65;;
32032;SDS011;31720;52.638;9.216;2023-04-03T01:59:21;0.85;;;0.57;;
32032;SDS011;31720;52.638;9.216;2023-04-03T02:02:23;5.15;;;0.70;;
32032;SDS011;31720;52.638;9.216;2023-04-03T02:05:25;6.05;;;1.13;;
32032;SDS011;31720;52.638;9.216;2023-04-03T02:08:26;2.00;;;1.17;;
32032;SDS011;31720;52.638;9.216;2023-04-03T02:11:27;1.23;;;0.40;;
32032;SDS011;31720;52.638;9.216;2023-04-03T02:14:29;1.95;;;0.52;;
32032;SDS011;31720;52.638;9.216;2023-04-03T02:17:32;1.63;;;0.43;;
32032;SDS011;31720;52.638;9.216;2023-04-03T02:20:33;3.42;;;0.90;;
32032;SDS011;31720;52.638;9.216;2023-04-03T02:23:35;0.73;;;0.50;;
32032;SDS011;31720;52.638;9.216;2023-04-03T02:26:36;7.20;;;0.63;;
32032;SDS011;31720;52.638;9.216;2023-04-03T02:29:38;1.27;;;0.70;;
32032;SDS011;31720;52.638;9.216;2023-04-03T02:32:41;2.75;;;0.60;;
32032;SDS011;31720;52.638;9.216;2023-04-03T02:35:43;1.50;;;0.82;;
32032;SDS011;31720;52.638;9.216;2023-04-03T02:38:46;5.15;;;0.80;;
32032;SDS011;31720;52.638;9.216;2023-04-03T02:41:48;0.82;;;0.80;;
32032;SDS011;31720;52.638;9.216;2023-04-03T02:44:49;2.40;;;0.70;;
32032;SDS011;31720;52.638;9.216;2023-04-03T02:47:52;1.55;;;0.75;;
32032;SDS011;31720;52.638;9.216;2023-04-03T02:50:53;3.17;;;0.75;;
32032;SDS011;31720;52.638;9.216;2023-04-03T02:53:55;0.85;;;0.55;;
32032;SDS011;31720;52.638;9.216;2023-04-03T02:56:56;1.50;;;0.35;;
32032;SDS011;31720;52.638;9.216;2023-04-03T02:59:59;0.52;;;0.30;;
32032;SDS011;31720;52.638;9.216;2023-04-03T03:03:02;0.55;;;0.55;;
32032;SDS011;31720;52.638;9.216;2023-04-03T03:06:04;2.05;;;0.63;;
32032;SDS011;31720;52.638;9.216;2023-04-03T03:09:07;3.35;;;0.45;;
32032;SDS011;31720;52.638;9.216;2023-04-03T03:12:09;3.50;;;0.80;;
32032;SDS011;31720;52.638;9.216;2023-04-03T03:15:10;0.52;;;0.50;;
32032;SDS011;31720;52.638;9.216;2023-04-03T03:18:13;1.85;;;0.80;;
32032;SDS011;31720;52.638;9.216;2023-04-03T03:21:14;1.65;;;0.70;;
32032;SDS011;31720;52.638;9.216;2023-04-03T03:24:16;1.48;;;0.55;;
32032;SDS011;31720;52.638;9.216;2023-04-03T03:27:17;3.80;;;0.80;;
32032;SDS011;31720;52.638;9.216;2023-04-03T03:30:19;1.27;;;0.43;;
32032;SDS011;31720;52.638;9.216;2023-04-03T03:33:22;0.90;;;0.52;;
32032;SDS011;31720;52.638;9.216;2023-04-03T03:36:23;2.00;;;0.70;;
32032;SDS011;31720;52.638;9.216;2023-04-03T03:39:25;0.68;;;0.45;;
32032;SDS011;31720;52.638;9.216;2023-04-03T03:42:26;1.15;;;0.70;;
32032;SDS011;31720;52.638;9.216;2023-04-03T03:45:28;1.73;;;0.60;;
32032;SDS011;31720;52.638;9.216;2023-04-03T03:48:30;1.15;;;0.60;;
32032;SDS011;31720;52.638;9.216;2023-04-03T03:51:32;0.88;;;0.38;;
32032;SDS011;31720;52.638;9.216;2023-04-03T03:54:33;1.10;;;0.70;;
32032;SDS011;31720;52.638;9.216;2023-04-03T03:57:35;0.63;;;0.43;;
32032;SDS011;31720;52.638;9.216;2023-04-03T04:00:36;0.90;;;0.50;;
32032;SDS011;31720;52.638;9.216;2023-04-03T04:03:39;1.15;;;0.40;;
32032;SDS011;31720;52.638;9.216;2023-04-03T04:06:40;2.55;;;0.70;;
32032;SDS011;31720;52.638;9.216;2023-04-03T04:09:41;4.75;;;0.73;;
32032;SDS011;31720;52.638;9.216;2023-04-03T04:12:43;1.92;;;0.75;;
32032;SDS011;31720;52.638;9.216;2023-04-03T04:15:44;1.85;;;0.73;;
32032;SDS011;31720;52.638;9.216;2023-04-03T04:18:47;4.75;;;1.35;;
32032;SDS011;31720;52.638;9.216;2023-04-03T04:21:48;2.05;;;0.73;;
32032;SDS011;31720;52.638;9.216;2023-04-03T04:24:50;3.10;;;0.60;;
32032;SDS011;31720;52.638;9.216;2023-04-03T04:27:51;6.88;;;1.35;;
32032;SDS011;31720;52.638;9.216;2023-04-03T04:30:53;0.73;;;0.40;;
32032;SDS011;31720;52.638;9.216;2023-04-03T04:33:56;0.75;;;0.43;;
32032;SDS011;31720;52.638;9.216;2023-04-03T04:36:57;3.15;;;0.80;;
32032;SDS011;31720;52.638;9.216;2023-04-03T04:39:58;3.95;;;0.85;;
32032;SDS011;31720;52.638;9.216;2023-04-03T04:43:00;1.77;;;0.63;;
32032;SDS011;31720;52.638;9.216;2023-04-03T04:46:02;0.50;;;0.50;;
32032;SDS011;31720;52.638;9.216;2023-04-03T04:49:06;2.92;;;0.55;;
32032;SDS011;31720;52.638;9.216;2023-04-03T04:52:07;0.57;;;0.50;;
32032;SDS011;31720;52.638;9.216;2023-04-03T04:55:09;2.70;;;0.88;;
32032;SDS011;31720;52.638;9.216;2023-04-03T04:58:10;1.00;;;0.60;;
32032;SDS011;31720;52.638;9.216;2023-04-03T05:01:12;5.68;;;0.95;;
32032;SDS011;31720;52.638;9.216;2023-04-03T05:04:14;1.33;;;0.75;;
32032;SDS011;31720;52.638;9.216;2023-04-03T05:07:16;1.27;;;1.05;;
32032;SDS011;31720;52.638;9.216;2023-04-03T05:10:18;4.40;;;0.85;;
32032;SDS011;31720;52.638;9.216;2023-04-03T05:13:19;1.17;;;0.70;;
32032;SDS011;31720;52.638;9.216;2023-04-03T05:16:21;2.15;;;0.98;;
32032;SDS011;31720;52.638;9.216;2023-04-03T05:19:24;3.10;;;0.60;;
32032;SDS011;31720;52.638;9.216;2023-04-03T05:22:25;2.17;;;1.13;;
32032;SDS011;31720;52.638;9.216;2023-04-03T05:25:26;2.95;;;0.60;;
32032;SDS011;31720;52.638;9.216;2023-04-03T05:28:28;1.65;;;0.57;;
32032;SDS011;31720;52.638;9.216;2023-04-03T05:31:29;0.98;;;0.60;;
32032;SDS011;31720;52.638;9.216;2023-04-03T05:34:32;1.58;;;0.68;;
32032;SDS011;31720;52.638;9.216;2023-04-03T05:37:34;1.35;;;0.82;;
32032;SDS011;31720;52.638;9.216;2023-04-03T05:40:36;5.68;;;0.98;;
32032;SDS011;31720;52.638;9.216;2023-04-03T05:43:37;3.58;;;0.75;;
32032;SDS011;31720;52.638;9.216;2023-04-03T05:46:39;0.77;;;0.50;;
32032;SDS011;31720;52.638;9.216;2023-04-03T05:49:42;2.42;;;0.82;;
32032;SDS011;31720;52.638;9.216;2023-04-03T05:52:45;1.73;;;0.77;;
32032;SDS011;31720;52.638;9.216;2023-04-03T05:55:49;4.22;;;0.80;;
32032;SDS011;31720;52.638;9.216;2023-04-03T05:58:50;2.55;;;0.80;;
32032;SDS011;31720;52.638;9.216;2023-04-03T06:01:52;3.53;;;1.10;;
32032;SDS011;31720;52.638;9.216;2023-04-03T06:04:54;2.33;;;0.93;;
32032;SDS011;31720;52.638;9.216;2023-04-03T06:07:56;0.90;;;0.50;;
32032;SDS011;31720;52.638;9.216;2023-04-03T06:10:58;2.90;;;0.65;;
32032;SDS011;31720;52.638;9.216;2023-04-03T06:13:59;3.53;;;0.65;;
32032;SDS011;31720;52.638;9.216;2023-04-03T06:17:00;3.10;;;0.70;;
32032;SDS011;31720;52.638;9.216;2023-04-03T06:20:04;0.30;;;0.30;;
32032;SDS011;31720;52.638;9.216;2023-04-03T06:23:06;4.35;;;1.88;;
32032;SDS011;31720;52.638;9.216;2023-04-03T06:26:07;7.13;;;0.50;;
32032;SDS011;31720;52.638;9.216;2023-04-03T06:29:09;1.17;;;0.60;;
32032;SDS011;31720;52.638;9.216;2023-04-03T06:32:10;4.15;;;0.88;;
32032;SDS011;31720;52.638;9.216;2023-04-03T06:35:13;2.40;;;1.10;;
32032;SDS011;31720;52.638;9.216;2023-04-03T06:38:14;3.80;;;0.93;;
32032;SDS011;31720;52.638;9.216;2023-04-03T06:41:16;1.17;;;0.60;;
32032;SDS011;31720;52.638;9.216;2023-04-03T06:44:17;0.95;;;0.60;;
32032;SDS011;31720;52.638;9.216;2023-04-03T06:47:19;1.05;;;0.65;;
32032;SDS011;31720;52.638;9.216;2023-04-03T06:50:22;7.97;;;0.65;;
32032;SDS011;31720;52.638;9.216;2023-04-03T06:53:23;1.55;;;0.68;;
32032;SDS011;31720;52.638;9.216;2023-04-03T06:56:25;0.88;;;0.63;;
32032;SDS011;31720;52.638;9.216;2023-04-03T06:59:27;1.67;;;0.73;;
32032;SDS011;31720;52.638;9.216;2023-04-03T07:02:28;9.98;;;1.73;;
32032;SDS011;31720;52.638;9.216;2023-04-03T07:05:31;0.93;;;0.40;;
32032;SDS011;31720;52.638;9.216;2023-04-03T07:08:33;7.72;;;0.75;;
32032;SDS011;31720;52.638;9.216;2023-04-03T07:11:35;0.55;;;0.52;;
32032;SDS011;31720;52.638;9.216;2023-04-03T07:14:37;3.42;;;0.70;;
32032;SDS011;31720;52.638;9.216;2023-04-03T07:17:38;1.80;;;0.73;;
32032;SDS011;31720;52.638;9.216;2023-04-03T07:20:41;4.88;;;0.85;;
32032;SDS011;31720;52.638;9.216;2023-04-03T07:23:42;1.48;;;0.90;;
32032;SDS011;31720;52.638;9.216;2023-04-03T07:26:44;1.52;;;0.75;;
32032;SDS011;31720;52.638;9.216;2023-04-03T07:29:50;1.33;;;0.47;;
32032;SDS011;31720;52.638;9.216;2023-04-03T07:32:51;3.08;;;1.02;;
32032;SDS011;31720;52.638;9.216;2023-04-03T07:35:54;1.92;;;1.00;;
32032;SDS011;31720;52.638;9.216;2023-04-03T07:38:56;6.75;;;0.70;;
32032;SDS011;31720;52.638;9.216;2023-04-03T07:41:57;1.25;;;0.60;;
32032;SDS011;31720;52.638;9.216;2023-04-03T07:44:59;4.55;;;1.15;;
32032;SDS011;31720;52.638;9.216;2023-04-03T07:48:00;2.33;;;1.08;;
32032;SDS011;31720;52.638;9.216;2023-04-03T07:51:04;7.15;;;0.80;;
32032;SDS011;31720;52.638;9.216;2023-04-03T07:54:06;2.85;;;1.00;;
32032;SDS011;31720;52.638;9.216;2023-04-03T07:57:08;2.90;;;0.63;;
32032;SDS011;31720;52.638;9.216;2023-04-03T08:00:11;0.40;;;0.40;;
32032;SDS011;31720;52.638;9.216;2023-04-03T08:03:14;5.60;;;0.60;;
32032;SDS011;31720;52.638;9.216;2023-04-03T08:06:19;0.90;;;0.22;;
32032;SDS011;31720;52.638;9.216;2023-04-03T08:09:20;5.32;;;0.75;;
32032;SDS011;31720;52.638;9.216;2023-04-03T08:12:22;2.28;;;0.70;;
32032;SDS011;31720;52.638;9.216;2023-04-03T08:15:23;1.30;;;0.63;;
32032;SDS011;31720;52.638;9.216;2023-04-03T08:18:25;5.53;;;0.63;;
32032;SDS011;31720;52.638;9.216;2023-04-03T08:21:28;0.85;;;0.38;;
32032;SDS011;31720;52.638;9.216;2023-04-03T08:24:29;0.30;;;0.30;;
32032;SDS011;31720;52.638;9.216;2023-04-03T08:27:31;6.05;;;0.90;;
32032;SDS011;31720;52.638;9.216;2023-04-03T08:30:32;0.80;;;0.40;;
32032;SDS011;31720;52.638;9.216;2023-04-03T08:33:34;0.88;;;0.40;;
32032;SDS011;31720;52.638;9.216;2023-04-03T08:36:38;0.90;;;0.60;;
32032;SDS011;31720;52.638;9.216;2023-04-03T08:39:40;0.40;;;0.30;;
32032;SDS011;31720;52.638;9.216;2023-04-03T08:42:43;0.60;;;0.40;;
32032;SDS011;31720;52.638;9.216;2023-04-03T08:45:52;6.95;;;1.15;;
32032;SDS011;31720;52.638;9.216;2023-04-03T08:48:56;3.15;;;0.70;;
32032;SDS011;31720;52.638;9.216;2023-04-03T08:52:02;0.57;;;0.43;;
32032;SDS011;31720;52.638;9.216;2023-04-03T08:55:14;0.25;;;0.10;;
32032;SDS011;31720;52.638;9.216;2023-04-03T08:58:24;1.58;;;0.30;;
32032;SDS011;31720;52.638;9.216;2023-04-03T09:01:29;3.97;;;0.28;;
32032;SDS011;31720;52.638;9.216;2023-04-03T09:04:35;0.70;;;0.57;;
32032;SDS011;31720;52.638;9.216;2023-04-03T09:07:39;3.85;;;2.00;;
32032;SDS011;31720;52.638;9.216;2023-04-03T09:10:44;1.13;;;0.75;;
32032;SDS011;31720;52.638;9.216;2023-04-03T09:13:47;1.35;;;0.73;;
32032;SDS011;31720;52.638;9.216;2023-04-03T09:16:55;3.97;;;1.10;;
32032;SDS011;31720;52.638;9.216;2023-04-03T09:20:01;1.05;;;0.55;;
32032;SDS011;31720;52.638;9.216;2023-04-03T09:23:16;0.52;;;0.40;;
32032;SDS011;31720;52.638;9.216;2023-04-03T09:26:23;0.45;;;0.38;;
32032;SDS011;31720;52.638;9.216;2023-04-03T09:29:27;4.78;;;0.40;;
32032;SDS011;31720;52.638;9.216;2023-04-03T09:32:29;5.57;;;0.30;;
32032;SDS011;31720;52.638;9.216;2023-04-03T09:35:33;4.32;;;0.40;;
32032;SDS011;31720;52.638;9.216;2023-04-03T09:38:38;5.15;;;0.60;;
32032;SDS011;31720;52.638;9.216;2023-04-03T09:41:39;0.70;;;0.32;;
32032;SDS011;31720;52.638;9.216;2023-04-03T09:44:41;1.10;;;0.43;;
32032;SDS011;31720;52.638;9.216;2023-04-03T09:47:42;3.97;;;1.23;;
32032;SDS011;31720;52.638;9.216;2023-04-03T09:50:54;3.35;;;1.27;;
32032;SDS011;31720;52.638;9.216;2023-04-03T09:54:00;1.15;;;0.60;;
32032;SDS011;31720;52.638;9.216;2023-04-03T09:57:32;2.53;;;0.73;;
32032;SDS011;31720;52.638;9.216;2023-04-03T10:00:35;2.03;;;0.50;;
32032;SDS011;31720;52.638;9.216;2023-04-03T10:03:38;0.55;;;0.32;;
32032;SDS011;31720;52.638;9.216;2023-04-03T10:06:46;0.85;;;0.20;;
32032;SDS011;31720;52.638;9.216;2023-04-03T10:09:55;1.52;;;0.43;;
32032;SDS011;31720;52.638;9.216;2023-04-03T10:13:03;2.60;;;0.60;;
32032;SDS011;31720;52.638;9.216;2023-04-03T10:16:07;0.68;;;0.38;;
32032;SDS011;31720;52.638;9.216;2023-04-03T10:19:27;0.73;;;0.30;;
32032;SDS011;31720;52.638;9.216;2023-04-03T10:22:37;2.03;;;0.30;;
32032;SDS011;31720;52.638;9.216;2023-04-03T10:25:52;2.67;;;0.57;;
32032;SDS011;31720;52.638;9.216;2023-04-03T10:29:06;1.77;;;0.65;;
32032;SDS011;31720;52.638;9.216;2023-04-03T10:32:16;1.10;;;0.52;;
32032;SDS011;31720;52.638;9.216;2023-04-03T10:35:33;0.30;;;0.30;;
32032;SDS011;31720;52.638;9.216;2023-04-03T10:38:45;3.10;;;0.95;;
32032;SDS011;31720;52.638;9.216;2023-04-03T10:42:02;0.32;;;0.30;;
32032;SDS011;31720;52.638;9.216;2023-04-03T10:45:15;0.47;;;0.20;;
32032;SDS011;31720;52.638;9.216;2023-04-03T10:48:25;0.88;;;0.55;;
32032;SDS011;31720;52.638;9.216;2023-04-03T10:51:41;4.43;;;0.70;;
32032;SDS011;31720;52.638;9.216;2023-04-03T10:54:46;1.15;;;0.32;;
32032;SDS011;31720;52.638;9.216;2023-04-03T10:57:58;1.63;;;0.47;;
32032;SDS011;31720;52.638;9.216;2023-04-03T11:01:01;5.20;;;0.52;;
32032;SDS011;31720;52.638;9.216;2023-04-03T11:04:07;0.90;;;0.35;;
32032;SDS011;31720;52.638;9.216;2023-04-03T11:07:11;0.30;;;0.20;;
32032;SDS011;31720;52.638;9.216;2023-04-03T11:10:17;1.48;;;0.40;;
32032;SDS011;31720;52.638;9.216;2023-04-03T11:13:27;0.60;;;0.38;;
32032;SDS011;31720;52.638;9.216;2023-04-03T11:16:35;2.63;;;0.63;;
32032;SDS011;31720;52.638;9.216;2023-04-03T11:19:44;1.63;;;0.38;;
32032;SDS011;31720;52.638;9.216;2023-04-03T11:22:50;0.40;;;0.20;;
32032;SDS011;31720;52.638;9.216;2023-04-03T11:25:59;0.20;;;0.20;;
32032;SDS011;31720;52.638;9.216;2023-04-03T11:29:10;0.77;;;0.77;;
32032;SDS011;31720;52.638;9.216;2023-04-03T11:32:26;0.68;;;0.47;;
32032;SDS011;31720;52.638;9.216;2023-04-03T11:35:43;3.75;;;0.50;;
32032;SDS011;31720;52.638;9.216;2023-04-03T11:38:47;3.13;;;0.50;;
32032;SDS011;31720;52.638;9.216;2023-04-03T11:41:51;4.10;;;0.47;;
32032;SDS011;31720;52.638;9.216;2023-04-03T11:51:53;0.25;;;0.20;;
32032;SDS011;31720;52.638;9.216;2023-04-03T11:54:54;1.00;;;0.43;;
32032;SDS011;31720;52.638;9.216;2023-04-03T11:58:03;1.73;;;0.40;;
32032;SDS011;31720;52.638;9.216;2023-04-03T12:01:13;1.23;;;0.28;;
32032;SDS011;31720;52.638;9.216;2023-04-03T12:04:44;0.70;;;0.30;;
32032;SDS011;31720;52.638;9.216;2023-04-03T12:08:24;1.05;;;0.30;;
32032;SDS011;31720;52.638;9.216;2023-04-03T12:11:29;0.70;;;0.40;;
32032;SDS011;31720;52.638;9.216;2023-04-03T12:14:32;4.88;;;0.73;;
32032;SDS011;31720;52.638;9.216;2023-04-03T12:17:34;3.10;;;0.93;;
32032;SDS011;31720;52.638;9.216;2023-04-03T12:23:59;0.35;;;0.35;;
32032;SDS011;31720;52.638;9.216;2023-04-03T12:27:13;1.57;;;0.50;;
32032;SDS011;31720;52.638;9.216;2023-04-03T12:30:21;0.43;;;0.32;;
32032;SDS011;31720;52.638;9.216;2023-04-03T12:33:29;0.93;;;0.30;;
32032;SDS011;31720;52.638;9.216;2023-04-03T12:36:42;0.60;;;0.40;;
32032;SDS011;31720;52.638;9.216;2023-04-03T12:39:55;5.63;;;0.60;;
32032;SDS011;31720;52.638;9.216;2023-04-03T12:43:10;0.50;;;0.40;;
32032;SDS011;31720;52.638;9.216;2023-04-03T12:46:26;0.70;;;0.30;;
32032;SDS011;31720;52.638;9.216;2023-04-03T12:49:37;3.45;;;0.52;;
32032;SDS011;31720;52.638;9.216;2023-04-03T12:52:41;4.45;;;0.75;;
32032;SDS011;31720;52.638;9.216;2023-04-03T12:55:46;0.52;;;0.20;;
32032;SDS011;31720;52.638;9.216;2023-04-03T12:58:48;0.75;;;0.40;;
32032;SDS011;31720;52.638;9.216;2023-04-03T13:01:53;0.90;;;0.20;;
32032;SDS011;31720;52.638;9.216;2023-04-03T13:04:58;0.52;;;0.28;;
32032;SDS011;31720;52.638;9.216;2023-04-03T13:11:10;0.57;;;0.50;;
32032;SDS011;31720;52.638;9.216;2023-04-03T13:14:14;1.70;;;0.30;;
32032;SDS011;31720;52.638;9.216;2023-04-03T13:17:18;6.90;;;0.63;;
32032;SDS011;31720;52.638;9.216;2023-04-03T13:20:22;0.40;;;0.40;;
32032;SDS011;31720;52.638;9.216;2023-04-03T13:23:26;1.60;;;0.40;;
32032;SDS011;31720;52.638;9.216;2023-04-03T13:26:28;3.42;;;0.47;;
32032;SDS011;31720;52.638;9.216;2023-04-03T13:29:32;0.38;;;0.38;;
32032;SDS011;31720;52.638;9.216;2023-04-03T13:32:35;0.30;;;0.30;;
32032;SDS011;31720;52.638;9.216;2023-04-03T13:35:39;0.95;;;0.40;;
32032;SDS011;31720;52.638;9.216;2023-04-03T13:38:42;1.83;;;0.80;;
32032;SDS011;31720;52.638;9.216;2023-04-03T13:41:48;0.77;;;0.30;;
32032;SDS011;31720;52.638;9.216;2023-04-03T13:51:21;3.70;;;0.57;;
32032;SDS011;31720;52.638;9.216;2023-04-03T13:54:25;0.80;;;0.40;;
32032;SDS011;31720;52.638;9.216;2023-04-03T13:57:32;0.75;;;0.50;;
32032;SDS011;31720;52.638;9.216;2023-04-03T14:00:36;1.05;;;0.25;;
32032;SDS011;31720;52.638;9.216;2023-04-03T14:03:41;0.82;;;0.43;;
32032;SDS011;31720;52.638;9.216;2023-04-03T14:06:46;0.52;;;0.30;;
32032;SDS011;31720;52.638;9.216;2023-04-03T14:09:48;1.15;;;0.75;;
32032;SDS011;31720;52.638;9.216;2023-04-03T14:12:51;0.68;;;0.47;;
32032;SDS011;31720;52.638;9.216;2023-04-03T14:15:52;0.57;;;0.43;;
32032;SDS011;31720;52.638;9.216;2023-04-03T14:18:53;2.78;;;0.57;;
32032;SDS011;31720;52.638;9.216;2023-04-03T14:21:56;2.20;;;0.60;;
32032;SDS011;31720;52.638;9.216;2023-04-03T14:24:58;0.75;;;0.68;;
32032;SDS011;31720;52.638;9.216;2023-04-03T14:28:00;1.25;;;0.30;;
32032;SDS011;31720;52.638;9.216;2023-04-03T14:31:02;0.57;;;0.55;;
32032;SDS011;31720;52.638;9.216;2023-04-03T14:34:03;1.70;;;0.50;;
32032;SDS011;31720;52.638;9.216;2023-04-03T14:37:08;1.50;;;0.60;;
32032;SDS011;31720;52.638;9.216;2023-04-03T14:40:12;3.47;;;0.60;;
32032;SDS011;31720;52.638;9.216;2023-04-03T14:43:17;3.72;;;0.60;;
32032;SDS011;31720;52.638;9.216;2023-04-03T14:46:19;1.13;;;0.57;;
32032;SDS011;31720;52.638;9.216;2023-04-03T14:49:26;2.80;;;0.50;;
32032;SDS011;31720;52.638;9.216;2023-04-03T14:52:31;0.95;;;0.43;;
32032;SDS011;31720;52.638;9.216;2023-04-03T14:55:34;3.03;;;0.43;;
32032;SDS011;31720;52.638;9.216;2023-04-03T14:58:36;0.70;;;0.30;;
32032;SDS011;31720;52.638;9.216;2023-04-03T15:01:37;0.40;;;0.40;;
32032;SDS011;31720;52.638;9.216;2023-04-03T15:04:39;1.10;;;0.43;;
32032;SDS011;31720;52.638;9.216;2023-04-03T15:07:42;0.63;;;0.35;;
32032;SDS011;31720;52.638;9.216;2023-04-03T15:10:45;0.70;;;0.52;;
32032;SDS011;31720;52.638;9.216;2023-04-03T15:13:47;1.45;;;0.52;;
32032;SDS011;31720;52.638;9.216;2023-04-03T15:16:48;0.57;;;0.32;;
32032;SDS011;31720;52.638;9.216;2023-04-03T15:19:50;1.02;;;0.32;;
32032;SDS011;31720;52.638;9.216;2023-04-03T15:22:53;3.65;;;0.77;;
32032;SDS011;31720;52.638;9.216;2023-04-03T15:25:56;1.77;;;0.90;;
32032;SDS011;31720;52.638;9.216;2023-04-03T15:28:57;2.45;;;1.00;;
32032;SDS011;31720;52.638;9.216;2023-04-03T15:31:59;3.60;;;0.60;;
32032;SDS011;31720;52.638;9.216;2023-04-03T15:35:01;2.13;;;1.05;;
32032;SDS011;31720;52.638;9.216;2023-04-03T15:38:04;1.58;;;0.88;;
32032;SDS011;31720;52.638;9.216;2023-04-03T15:41:05;2.85;;;1.95;;
32032;SDS011;31720;52.638;9.216;2023-04-03T15:44:07;4.00;;;1.50;;
32032;SDS011;31720;52.638;9.216;2023-04-03T15:47:08;2.13;;;0.75;;
32032;SDS011;31720;52.638;9.216;2023-04-03T15:50:10;2.92;;;0.90;;
32032;SDS011;31720;52.638;9.216;2023-04-03T15:53:13;1.10;;;0.88;;
32032;SDS011;31720;52.638;9.216;2023-04-03T15:56:14;2.47;;;1.33;;
32032;SDS011;31720;52.638;9.216;2023-04-03T15:59:15;3.17;;;1.85;;
32032;SDS011;31720;52.638;9.216;2023-04-03T16:02:17;3.67;;;1.65;;
32032;SDS011;31720;52.638;9.216;2023-04-03T16:05:19;2.88;;;1.45;;
32032;SDS011;31720;52.638;9.216;2023-04-03T16:08:22;5.50;;;2.85;;
32032;SDS011;31720;52.638;9.216;2023-04-03T16:11:25;7.65;;;2.58;;
32032;SDS011;31720;52.638;9.216;2023-04-03T16:14:26;2.10;;;1.15;;
32032;SDS011;31720;52.638;9.216;2023-04-03T16:17:29;2.72;;;1.08;;
32032;SDS011;31720;52.638;9.216;2023-04-03T16:20:33;3.72;;;0.65;;
32032;SDS011;31720;52.638;9.216;2023-04-03T16:23:36;2.47;;;0.80;;
32032;SDS011;31720;52.638;9.216;2023-04-03T16:26:38;1.13;;;0.55;;
32032;SDS011;31720;52.638;9.216;2023-04-03T16:29:39;4.43;;;0.70;;
32032;SDS011;31720;52.638;9.216;2023-04-03T16:32:40;0.98;;;0.70;;
32032;SDS011;31720;52.638;9.216;2023-04-03T16:35:42;1.40;;;0.80;;
32032;SDS011;31720;52.638;9.216;2023-04-03T16:38:45;7.65;;;0.85;;
32032;SDS011;31720;52.638;9.216;2023-04-03T16:41:47;2.60;;;0.70;;
32032;SDS011;31720;52.638;9.216;2023-04-03T16:44:48;1.67;;;1.02;;
32032;SDS011;31720;52.638;9.216;2023-04-03T16:47:49;0.80;;;0.65;;
32032;SDS011;31720;52.638;9.216;2023-04-03T16:50:51;4.57;;;0.68;;
32032;SDS011;31720;52.638;9.216;2023-04-03T16:53:54;1.70;;;0.88;;
32032;SDS011;31720;52.638;9.216;2023-04-03T16:56:56;2.17;;;0.70;;
32032;SDS011;31720;52.638;9.216;2023-04-03T16:59:57;4.05;;;1.10;;
32032;SDS011;31720;52.638;9.216;2023-04-03T17:02:59;1.63;;;0.65;;
32032;SDS011;31720;52.638;9.216;2023-04-03T17:06:00;1.27;;;0.73;;
32032;SDS011;31720;52.638;9.216;2023-04-03T17:09:03;0.68;;;0.60;;
32032;SDS011;31720;52.638;9.216;2023-04-03T17:12:05;1.30;;;0.80;;
32032;SDS011;31720;52.638;9.216;2023-04-03T17:15:07;3.63;;;1.00;;
32032;SDS011;31720;52.638;9.216;2023-04-03T17:18:09;1.67;;;0.68;;
32032;SDS011;31720;52.638;9.216;2023-04-03T17:21:10;1.98;;;0.60;;
32032;SDS011;31720;52.638;9.216;2023-04-03T17:24:13;1.75;;;0.50;;
32032;SDS011;31720;52.638;9.216;2023-04-03T17:27:15;1.98;;;0.68;;
32032;SDS011;31720;52.638;9.216;2023-04-03T17:30:17;1.65;;;0.60;;
32032;SDS011;31720;52.638;9.216;2023-04-03T17:33:18;1.02;;;0.60;;
32032;SDS011;31720;52.638;9.216;2023-04-03T17:36:19;0.50;;;0.43;;
32032;SDS011;31720;52.638;9.216;2023-04-03T17:39:22;1.77;;;0.68;;
32032;SDS011;31720;52.638;9.216;2023-04-03T17:42:23;4.13;;;0.70;;
32032;SDS011;31720;52.638;9.216;2023-04-03T17:45:25;2.53;;;0.80;;
32032;SDS011;31720;52.638;9.216;2023-04-03T17:48:26;1.90;;;0.68;;
32032;SDS011;31720;52.638;9.216;2023-04-03T17:51:28;0.43;;;0.43;;
32032;SDS011;31720;52.638;9.216;2023-04-03T17:54:30;1.10;;;0.40;;
32032;SDS011;31720;52.638;9.216;2023-04-03T17:57:32;7.60;;;0.82;;
32032;SDS011;31720;52.638;9.216;2023-04-03T18:00:33;2.83;;;0.60;;
32032;SDS011;31720;52.638;9.216;2023-04-03T18:03:34;1.33;;;0.60;;
32032;SDS011;31720;52.638;9.216;2023-04-03T18:06:37;3.60;;;0.88;;
32032;SDS011;31720;52.638;9.216;2023-04-03T18:09:42;2.22;;;0.90;;
32032;SDS011;31720;52.638;9.216;2023-04-03T18:12:46;5.97;;;1.40;;
32032;SDS011;31720;52.638;9.216;2023-04-03T18:15:48;3.13;;;1.38;;
32032;SDS011;31720;52.638;9.216;2023-04-03T18:18:49;5.07;;;1.58;;
32032;SDS011;31720;52.638;9.216;2023-04-03T18:21:51;3.45;;;1.40;;
32032;SDS011;31720;52.638;9.216;2023-04-03T18:24:57;8.43;;;1.95;;
32032;SDS011;31720;52.638;9.216;2023-04-03T18:27:59;5.07;;;1.35;;
32032;SDS011;31720;52.638;9.216;2023-04-03T18:31:05;4.68;;;2.30;;
32032;SDS011;31720;52.638;9.216;2023-04-03T18:34:09;17.45;;;5.07;;
32032;SDS011;31720;52.638;9.216;2023-04-03T18:37:11;13.50;;;3.78;;
32032;SDS011;31720;52.638;9.216;2023-04-03T18:40:15;8.50;;;3.03;;
32032;SDS011;31720;52.638;9.216;2023-04-03T18:43:17;8.95;;;2.60;;
32032;SDS011;31720;52.638;9.216;2023-04-03T18:46:18;6.03;;;2.28;;